Time;durP1;ratioP1;P1;durP2;ratioP2;P2;SDS_P1;SDS_P2;PMS_P1;PMS_P2;Temp;Humidity;BMP_temperature;BMP_pressure;BME280_temperature;BME280_humidity;BME280_pressure;Samples;Min_cycle;Max_cycle;Signal;HPM_P1;HPM_P2
2022/03/20 00:02:23;;;;;;;27.02;15.63;;;8.80;40.40;;;;;;5003021;28;20054;-42
2022/03/20 00:04:50;;;;;;;31.60;18.38;;;8.80;40.30;;;;;;5001822;28;20413;-42
2022/03/20 00:07:18;;;;;;;30.75;17.23;;;8.70;40.30;;;;;;5003264;28;20061;-42
2022/03/20 00:09:46;;;;;;;26.55;15.20;;;8.70;40.20;;;;;;5002165;28;20054;-43
2022/03/20 00:12:15;;;;;;;27.15;15.18;;;8.70;40.30;;;;;;5003749;28;20058;-42
2022/03/20 00:14:42;;;;;;;25.42;14.98;;;8.70;40.50;;;;;;5000483;28;20057;-47
2022/03/20 00:17:10;;;;;;;32.60;16.63;;;8.70;40.50;;;;;;5003333;28;20050;-43
2022/03/20 00:19:37;;;;;;;31.10;16.30;;;8.70;40.50;;;;;;5003821;28;20061;-43
2022/03/20 00:22:05;;;;;;;27.02;15.25;;;8.60;40.50;;;;;;5001828;28;20053;-42
2022/03/20 00:24:33;;;;;;;32.70;16.60;;;8.70;40.40;;;;;;4999806;28;20719;-45
2022/03/20 00:27:01;;;;;;;28.48;16.50;;;8.60;40.20;;;;;;5003168;28;20425;-43
2022/03/20 00:29:31;;;;;;;34.22;17.27;;;8.60;40.10;;;;;;5004461;28;20065;-42
2022/03/20 00:31:58;;;;;;;30.33;16.83;;;8.60;40.10;;;;;;5001912;28;20490;-44
2022/03/20 00:34:26;;;;;;;30.27;15.57;;;8.60;40.20;;;;;;4997961;28;20057;-42
2022/03/20 00:36:53;;;;;;;32.28;16.95;;;8.60;40.10;;;;;;5002583;28;20050;-43
2022/03/20 00:39:21;;;;;;;30.40;16.35;;;8.50;40.00;;;;;;5004359;28;20061;-43
2022/03/20 00:41:48;;;;;;;34.53;17.88;;;8.50;40.00;;;;;;5003720;28;20064;-43
2022/03/20 00:44:16;;;;;;;37.00;17.83;;;8.50;40.00;;;;;;5000123;28;20049;-43
2022/03/20 00:46:45;;;;;;;31.23;16.50;;;8.40;40.00;;;;;;5001867;28;20064;-42
2022/03/20 00:49:13;;;;;;;27.25;14.75;;;8.40;39.90;;;;;;5003521;28;20498;-42
2022/03/20 00:51:40;;;;;;;28.35;15.93;;;8.40;39.80;;;;;;5000289;28;20060;-43
2022/03/20 00:54:08;;;;;;;26.05;14.93;;;8.40;39.90;;;;;;4999261;28;20053;-42
2022/03/20 00:56:35;;;;;;;27.70;15.18;;;8.30;39.90;;;;;;5003817;28;20421;-42
2022/03/20 00:59:03;;;;;;;29.40;16.05;;;8.30;39.90;;;;;;5002326;28;20055;-47
2022/03/20 01:01:32;;;;;;;28.67;15.18;;;8.30;39.80;;;;;;5002420;28;20057;-43
2022/03/20 01:04:01;;;;;;;30.75;15.75;;;8.30;39.80;;;;;;5000190;28;20066;-42
2022/03/20 01:06:29;;;;;;;25.63;14.88;;;8.30;39.80;;;;;;5002348;28;20054;-42
2022/03/20 01:08:56;;;;;;;25.08;13.88;;;8.20;39.80;;;;;;5001660;28;20092;-42
2022/03/20 01:11:23;;;;;;;30.50;15.63;;;8.20;39.90;;;;;;5002410;28;20068;-43
2022/03/20 01:13:56;;;;;;;25.45;14.82;;;8.20;40.00;;;;;;4999420;28;20061;-42
2022/03/20 01:16:23;;;;;;;35.33;16.48;;;8.20;40.00;;;;;;5001471;28;20053;-42
2022/03/20 01:18:51;;;;;;;26.52;16.05;;;8.20;39.90;;;;;;5002320;28;20050;-42
2022/03/20 01:21:20;;;;;;;28.05;14.52;;;8.20;40.20;;;;;;5001629;28;20521;-43
2022/03/20 01:23:47;;;;;;;27.65;14.90;;;8.10;40.00;;;;;;5000608;28;20291;-43
2022/03/20 01:26:15;;;;;;;26.70;14.55;;;8.10;40.10;;;;;;5001061;28;20046;-42
2022/03/20 01:28:42;;;;;;;27.60;13.57;;;8.10;40.10;;;;;;5002194;28;20502;-43
2022/03/20 01:31:10;;;;;;;28.98;15.13;;;8.10;40.10;;;;;;5002560;28;20463;-43
2022/03/20 01:33:38;;;;;;;26.02;15.00;;;8.10;40.70;;;;;;4999494;28;20057;-42
2022/03/20 01:36:05;;;;;;;43.33;15.70;;;8.10;40.20;;;;;;4998153;28;20054;-43
2022/03/20 01:38:35;;;;;;;23.50;14.05;;;8.00;40.00;;;;;;5001982;28;20406;-43
2022/03/20 01:41:02;;;;;;;29.45;15.48;;;8.00;40.20;;;;;;5001942;28;20058;-43
2022/03/20 01:43:30;;;;;;;27.80;16.08;;;8.00;40.20;;;;;;5002138;28;20494;-47
2022/03/20 01:45:57;;;;;;;29.38;15.57;;;8.00;40.30;;;;;;4997575;28;20061;-43
2022/03/20 01:48:25;;;;;;;26.17;15.13;;;8.00;40.20;;;;;;5001075;28;20060;-43
2022/03/20 01:50:53;;;;;;;28.83;15.32;;;8.00;40.20;;;;;;4999624;28;20497;-43
2022/03/20 01:53:21;;;;;;;28.48;15.75;;;8.00;40.40;;;;;;5001056;28;20061;-43
2022/03/20 01:55:52;;;;;;;27.08;14.35;;;7.90;40.40;;;;;;5000264;28;20054;-46
2022/03/20 01:58:20;;;;;;;27.65;14.18;;;7.90;40.30;;;;;;5001804;28;20058;-44
2022/03/20 02:00:47;;;;;;;23.58;14.05;;;7.90;40.30;;;;;;5001025;28;20414;-43
2022/03/20 02:03:15;;;;;;;25.48;14.52;;;7.90;40.40;;;;;;5001869;28;20060;-43
2022/03/20 02:05:43;;;;;;;27.20;13.95;;;7.80;40.80;;;;;;4998336;28;20062;-45
2022/03/20 02:08:11;;;;;;;27.95;15.00;;;7.80;40.30;;;;;;5000434;28;20401;-43
2022/03/20 02:10:40;;;;;;;24.42;13.27;;;7.80;40.40;;;;;;5002415;28;20056;-43
2022/03/20 02:13:09;;;;;;;23.52;13.68;;;7.80;40.40;;;;;;5002588;28;20049;-44
2022/03/20 02:15:37;;;;;;;22.35;12.77;;;7.70;40.40;;;;;;5000073;28;20057;-43
2022/03/20 02:18:07;;;;;;;26.73;14.85;;;7.70;40.40;;;;;;5002323;28;20053;-43
2022/03/20 02:20:34;;;;;;;28.88;14.88;;;7.70;40.30;;;;;;4996636;28;20061;-42
2022/03/20 02:23:03;;;;;;;25.52;14.20;;;7.70;40.10;;;;;;5001759;28;20054;-45
2022/03/20 02:25:31;;;;;;;31.95;15.95;;;7.70;40.00;;;;;;5000095;28;20061;-43
2022/03/20 02:27:58;;;;;;;31.45;15.32;;;7.60;39.90;;;;;;5001821;28;20058;-42
2022/03/20 02:30:30;;;;;;;32.25;15.70;;;7.70;39.80;;;;;;5000526;28;20831;-42
2022/03/20 02:32:57;;;;;;;27.75;14.05;;;7.70;39.80;;;;;;5000549;28;20049;-43
2022/03/20 02:35:25;;;;;;;32.08;15.93;;;7.70;39.70;;;;;;4998583;28;20057;-45
2022/03/20 02:37:54;;;;;;;26.88;14.75;;;7.70;39.70;;;;;;4997845;28;20057;-43
2022/03/20 02:40:23;;;;;;;29.00;15.30;;;7.70;39.70;;;;;;5001961;28;20050;-45
2022/03/20 02:42:53;;;;;;;21.17;12.85;;;7.70;39.70;;;;;;5005085;28;20053;-43
2022/03/20 02:45:23;;;;;;;22.95;13.18;;;7.70;39.70;;;;;;5002808;28;20049;-42
2022/03/20 02:47:52;;;;;;;31.40;14.88;;;7.70;39.60;;;;;;5004522;28;20064;-42
2022/03/20 02:50:22;;;;;;;30.58;14.40;;;7.70;39.60;;;;;;5005143;28;20076;-42
2022/03/20 02:52:52;;;;;;;26.38;14.25;;;7.70;39.50;;;;;;5003456;28;20046;-43
2022/03/20 02:55:23;;;;;;;24.52;12.75;;;7.70;39.40;;;;;;5004617;28;20057;-42
2022/03/20 02:57:52;;;;;;;27.00;14.60;;;7.70;39.40;;;;;;5005014;28;20061;-43
2022/03/20 03:00:22;;;;;;;27.38;14.93;;;7.70;39.60;;;;;;5004364;28;20057;-42
2022/03/20 03:02:51;;;;;;;28.95;15.15;;;7.70;39.70;;;;;;5001928;28;20045;-43
2022/03/20 03:05:20;;;;;;;28.63;14.90;;;7.70;39.80;;;;;;5003328;28;20054;-43
2022/03/20 03:13:22;;;;;;;32.88;16.75;;;7.60;39.70;;;;;;5009212;28;20065;-43
2022/03/20 03:15:51;;;;;;;35.03;17.83;;;7.60;39.70;;;;;;5001142;28;20054;-43
2022/03/20 03:18:20;;;;;;;30.75;16.70;;;7.60;39.80;;;;;;5001523;28;20054;-43
2022/03/20 03:20:48;;;;;;;30.13;15.75;;;7.60;39.80;;;;;;5000257;28;20191;-43
2022/03/20 03:23:17;;;;;;;28.95;15.25;;;7.50;39.80;;;;;;5003690;28;20049;-43
2022/03/20 03:25:46;;;;;;;27.23;14.82;;;7.50;39.90;;;;;;5003950;28;20116;-43
2022/03/20 03:28:13;;;;;;;29.85;15.18;;;7.50;39.90;;;;;;5004776;28;20068;-43
2022/03/20 03:30:44;;;;;;;33.85;17.25;;;7.50;39.90;;;;;;5004882;28;20057;-42
2022/03/20 03:33:12;;;;;;;39.70;17.23;;;7.50;39.90;;;;;;5001684;28;20417;-43
2022/03/20 03:35:42;;;;;;;31.75;17.52;;;7.40;39.90;;;;;;4999745;28;20054;-46
2022/03/20 03:38:11;;;;;;;27.77;15.65;;;7.40;40.00;;;;;;5003768;28;20060;-44
2022/03/20 03:40:39;;;;;;;33.80;18.20;;;7.40;40.00;;;;;;5005683;28;20057;-43
2022/03/20 03:43:09;;;;;;;36.17;18.58;;;7.40;40.00;;;;;;5002453;28;20062;-46
2022/03/20 03:45:39;;;;;;;34.50;17.63;;;7.40;40.10;;;;;;5003408;28;20045;-45
2022/03/20 03:48:06;;;;;;;30.50;17.45;;;7.40;40.20;;;;;;5003684;28;20537;-43
2022/03/20 03:50:35;;;;;;;27.60;16.25;;;7.40;40.10;;;;;;5001703;28;20077;-45
2022/03/20 03:53:03;;;;;;;35.78;18.48;;;7.40;40.10;;;;;;5002557;28;20486;-42
2022/03/20 03:55:31;;;;;;;33.72;16.55;;;7.30;40.20;;;;;;5003913;28;20065;-42
2022/03/20 03:57:59;;;;;;;34.60;18.50;;;7.30;40.20;;;;;;5004145;28;20433;-45
2022/03/20 04:00:32;;;;;;;35.33;17.80;;;7.30;40.20;;;;;;5004410;28;20486;-42
2022/03/20 04:03:00;;;;;;;38.90;19.60;;;7.30;40.20;;;;;;5001381;28;20058;-43
2022/03/20 04:05:28;;;;;;;37.80;19.00;;;7.30;40.20;;;;;;5000404;28;20050;-45
2022/03/20 04:07:57;;;;;;;36.42;19.15;;;7.30;40.20;;;;;;5002654;28;20057;-44
2022/03/20 04:10:25;;;;;;;35.55;17.77;;;7.20;40.30;;;;;;5002836;28;20062;-42
2022/03/20 04:12:53;;;;;;;33.10;18.23;;;7.30;40.30;;;;;;5001409;28;20057;-42
2022/03/20 04:15:24;;;;;;;37.30;18.33;;;7.30;40.40;;;;;;5001059;28;20053;-45
2022/03/20 04:17:53;;;;;;;33.97;17.95;;;7.30;40.30;;;;;;5003726;28;20413;-42
2022/03/20 04:20:22;;;;;;;38.42;19.15;;;7.30;40.40;;;;;;5001247;28;20060;-45
2022/03/20 04:25:39;;;;;;;34.58;18.42;;;7.30;40.30;;;;;;5004801;28;20410;-43
2022/03/20 04:28:06;;;;;;;33.50;17.98;;;7.30;40.30;;;;;;5002819;28;20050;-42
2022/03/20 04:30:35;;;;;;;38.55;20.83;;;7.30;40.30;;;;;;4998960;28;20383;-44
2022/03/20 04:33:05;;;;;;;35.55;19.55;;;7.30;40.40;;;;;;5002312;28;20062;-42
2022/03/20 04:35:33;;;;;;;29.92;17.55;;;7.30;40.40;;;;;;4999642;28;20054;-42
2022/03/20 04:38:01;;;;;;;41.28;20.02;;;7.30;40.50;;;;;;5002862;28;20060;-42
2022/03/20 04:40:28;;;;;;;37.78;20.17;;;7.30;40.50;;;;;;4999979;28;20054;-43
2022/03/20 04:42:56;;;;;;;39.50;19.58;;;7.30;40.50;;;;;;5003628;28;20046;-42
2022/03/20 04:45:24;;;;;;;33.80;18.42;;;7.30;40.60;;;;;;4998231;28;20058;-42
2022/03/20 04:58:52;;;;;;;38.47;20.55;;;7.40;41.00;;;;;;5001548;28;20069;-42
2022/03/20 05:01:20;;;;;;;37.97;20.58;;;7.40;41.00;;;;;;5000040;28;20069;-43
2022/03/20 05:03:48;;;;;;;39.47;20.58;;;7.40;40.90;;;;;;4997293;28;20133;-45
2022/03/20 05:06:17;;;;;;;42.55;20.92;;;7.50;41.00;;;;;;5002037;28;20050;-42
2022/03/20 05:08:44;;;;;;;36.72;21.00;;;7.50;41.20;;;;;;5003566;28;20065;-42
2022/03/20 05:13:57;;;;;;;37.15;20.13;;;7.50;40.90;;;;;;4996512;28;20145;-42
2022/03/20 05:16:24;;;;;;;39.85;21.48;;;7.50;41.50;;;;;;4976506;28;20066;-45
2022/03/20 05:18:52;;;;;;;39.15;21.05;;;7.60;41.20;;;;;;4978391;28;20058;-43
2022/03/20 05:21:21;;;;;;;37.15;20.10;;;7.60;41.40;;;;;;4981708;28;20054;-44
2022/03/20 05:23:48;;;;;;;37.40;19.08;;;7.50;41.20;;;;;;4980080;28;20069;-43
2022/03/20 05:26:15;;;;;;;39.13;20.52;;;7.60;41.20;;;;;;4976302;28;20050;-42
2022/03/20 05:28:43;;;;;;;42.35;21.63;;;7.60;41.10;;;;;;4981463;28;20525;-43
2022/03/20 05:31:11;;;;;;;39.70;21.30;;;7.60;41.10;;;;;;4980649;28;20059;-42
2022/03/20 05:33:39;;;;;;;35.63;19.92;;;7.60;41.10;;;;;;4980631;28;20498;-42
2022/03/20 05:36:06;;;;;;;42.90;21.55;;;7.60;41.10;;;;;;4980102;28;20426;-42
2022/03/20 05:38:37;;;;;;;43.15;22.25;;;7.60;41.00;;;;;;4980879;28;20406;-43
2022/03/20 05:43:58;;;;;;;66.40;32.70;;;7.60;41.00;;;;;;4958143;28;20046;-42
2022/03/20 05:46:25;;;;;;;45.35;23.83;;;7.60;41.00;;;;;;4979866;28;20057;-42
2022/03/20 05:48:53;;;;;;;39.72;21.40;;;7.60;41.10;;;;;;4980754;28;20065;-42
2022/03/20 05:51:20;;;;;;;36.08;19.48;;;7.60;41.10;;;;;;4979712;28;20065;-47
2022/03/20 05:53:49;;;;;;;39.22;19.50;;;7.60;41.10;;;;;;4980071;28;20072;-44
2022/03/20 05:59:01;;;;;;;37.45;19.73;;;7.60;41.20;;;;;;4985527;28;20587;-43
2022/03/20 06:01:29;;;;;;;34.63;20.00;;;7.60;41.20;;;;;;4982030;28;20058;-43
2022/03/20 06:03:56;;;;;;;50.13;23.90;;;7.60;41.30;;;;;;4980378;28;20061;-42
2022/03/20 06:06:24;;;;;;;44.92;22.40;;;7.60;41.80;;;;;;4981187;28;20441;-42
2022/03/20 06:08:53;;;;;;;42.67;20.27;;;7.50;41.20;;;;;;4981137;28;20304;-44
2022/03/20 06:11:20;;;;;;;36.80;20.95;;;7.50;41.20;;;;;;4982813;28;20603;-43
2022/03/20 06:13:48;;;;;;;41.10;21.67;;;7.50;41.80;;;;;;4981818;28;20058;-43
2022/03/20 06:16:17;;;;;;;38.75;20.73;;;7.50;41.40;;;;;;4984444;28;20054;-42
2022/03/20 06:18:45;;;;;;;36.17;18.80;;;7.50;41.40;;;;;;4984989;28;20062;-42
2022/03/20 06:21:13;;;;;;;35.65;20.02;;;7.50;41.50;;;;;;4984564;28;20065;-43
2022/03/20 06:23:40;;;;;;;34.28;19.30;;;7.50;41.60;;;;;;4985193;28;20050;-44
2022/03/20 06:26:10;;;;;;;45.50;20.00;;;7.50;41.60;;;;;;4983015;28;20058;-42
2022/03/20 06:28:40;;;;;;;40.35;21.35;;;7.50;41.90;;;;;;4986658;28;20050;-42
2022/03/20 06:31:09;;;;;;;44.95;23.55;;;7.50;41.70;;;;;;4985873;28;20061;-44
2022/03/20 06:33:37;;;;;;;34.97;19.73;;;7.60;41.80;;;;;;4985817;28;20054;-43
2022/03/20 06:36:06;;;;;;;35.05;20.77;;;7.60;41.80;;;;;;4983509;28;20415;-42
2022/03/20 06:38:35;;;;;;;43.20;23.88;;;7.60;41.90;;;;;;4985055;28;20495;-42
2022/03/20 06:41:03;;;;;;;38.05;20.25;;;7.60;41.90;;;;;;4985277;28;20058;-43
2022/03/20 06:43:34;;;;;;;38.55;21.75;;;7.60;41.90;;;;;;4985555;28;20130;-42
2022/03/20 06:46:02;;;;;;;44.45;23.95;;;7.60;41.90;;;;;;4983700;28;20049;-42
2022/03/20 06:48:29;;;;;;;37.47;20.65;;;7.70;42.10;;;;;;4985734;28;20055;-42
2022/03/20 06:50:57;;;;;;;41.28;22.73;;;7.70;42.20;;;;;;4983407;28;20415;-45
2022/03/20 06:53:24;;;;;;;41.08;20.73;;;7.70;42.30;;;;;;4982650;28;20069;-43
2022/03/20 06:55:52;;;;;;;36.42;19.42;;;7.80;42.30;;;;;;4981200;28;20491;-43
2022/03/20 06:58:22;;;;;;;34.53;18.52;;;7.80;42.30;;;;;;4983482;28;20077;-43
2022/03/20 07:00:51;;;;;;;38.05;20.40;;;7.80;42.10;;;;;;4983324;28;20054;-42
2022/03/20 07:03:20;;;;;;;34.80;20.27;;;7.80;42.10;;;;;;4985130;28;20050;-43
2022/03/20 07:05:48;;;;;;;40.15;21.77;;;7.90;42.10;;;;;;4982585;28;20572;-42
2022/03/20 07:08:15;;;;;;;42.33;22.45;;;7.90;42.10;;;;;;4985245;28;20051;-42
2022/03/20 07:10:43;;;;;;;46.42;23.98;;;8.00;42.20;;;;;;4982263;28;20059;-43
2022/03/20 07:15:58;;;;;;;43.85;23.10;;;8.10;42.00;;;;;;4989359;28;20060;-43
2022/03/20 07:18:27;;;;;;;42.75;22.95;;;8.10;42.00;;;;;;4984137;28;20043;-42
2022/03/20 07:20:56;;;;;;;41.00;23.23;;;8.10;42.00;;;;;;4981600;28;20062;-42
2022/03/20 07:23:24;;;;;;;46.38;24.55;;;8.10;42.10;;;;;;4984089;28;20501;-42
2022/03/20 07:31:22;;;;;;;56.20;25.70;;;8.30;42.70;;;;;;4981446;28;20414;-43
2022/03/20 07:33:50;;;;;;;49.00;26.05;;;8.20;42.80;;;;;;4981048;28;20490;-43
2022/03/20 07:36:19;;;;;;;44.78;25.15;;;8.30;43.00;;;;;;4982349;28;20426;-42
2022/03/20 07:38:46;;;;;;;43.42;24.65;;;8.30;43.00;;;;;;4984340;28;20282;-43
2022/03/20 07:41:14;;;;;;;44.30;25.35;;;8.40;42.90;;;;;;4981258;28;20103;-43
2022/03/20 07:43:42;;;;;;;48.63;26.95;;;8.40;42.80;;;;;;4980581;28;20062;-44
2022/03/20 07:46:09;;;;;;;50.10;26.20;;;8.40;43.30;;;;;;4980956;28;20065;-45
2022/03/20 07:48:38;;;;;;;47.88;25.90;;;8.50;43.30;;;;;;4984955;28;20050;-43
2022/03/20 07:51:06;;;;;;;47.65;27.45;;;8.50;43.30;;;;;;4982184;28;20521;-42
2022/03/20 07:53:33;;;;;;;49.47;27.05;;;8.60;43.50;;;;;;4983606;28;20061;-48
2022/03/20 07:56:01;;;;;;;46.80;26.48;;;8.60;43.30;;;;;;4982749;28;20054;-46
2022/03/20 07:58:28;;;;;;;51.97;26.80;;;8.60;43.30;;;;;;4983322;28;20499;-43
2022/03/20 08:00:55;;;;;;;48.90;26.95;;;8.70;43.30;;;;;;4981681;28;20054;-43
2022/03/20 08:03:23;;;;;;;54.13;27.35;;;8.80;43.40;;;;;;4984476;28;20391;-42
2022/03/20 08:05:52;;;;;;;69.45;34.70;;;8.80;43.20;;;;;;4979363;28;20415;-43
2022/03/20 08:08:19;;;;;;;53.58;29.52;;;8.90;43.10;;;;;;4981401;28;20053;-46
2022/03/20 08:10:47;;;;;;;51.53;26.70;;;9.00;43.10;;;;;;4983035;28;20549;-43
2022/03/20 08:13:14;;;;;;;52.75;27.63;;;9.00;43.30;;;;;;4981024;28;20050;-43
2022/03/20 08:15:43;;;;;;;49.17;27.35;;;9.10;43.10;;;;;;4980912;28;20189;-44
2022/03/20 08:18:10;;;;;;;49.88;26.83;;;9.10;43.10;;;;;;4983797;28;20058;-42
2022/03/20 08:20:42;;;;;;;52.63;28.45;;;9.20;43.00;;;;;;4982366;28;20092;-45
2022/03/20 08:23:11;;;;;;;49.47;27.88;;;9.20;43.00;;;;;;4980080;28;20141;-42
2022/03/20 08:25:39;;;;;;;49.55;28.40;;;9.30;42.80;;;;;;4977716;28;20061;-42
2022/03/20 08:28:09;;;;;;;49.35;27.02;;;9.30;42.60;;;;;;4978903;28;20055;-43
2022/03/20 08:30:37;;;;;;;57.22;30.38;;;9.40;43.00;;;;;;4982503;28;20402;-43
2022/03/20 08:33:05;;;;;;;54.42;29.20;;;9.40;43.20;;;;;;4979570;28;20703;-42
2022/03/20 08:35:33;;;;;;;53.80;27.90;;;9.50;43.00;;;;;;4978741;28;20426;-42
2022/03/20 08:38:00;;;;;;;52.60;27.30;;;9.60;42.60;;;;;;4981957;28;20046;-42
2022/03/20 08:40:29;;;;;;;53.38;28.02;;;9.60;42.20;;;;;;4983127;28;20058;-45
2022/03/20 08:42:57;;;;;;;49.45;27.60;;;9.70;42.30;;;;;;4983291;28;20065;-42
2022/03/20 08:45:27;;;;;;;51.15;27.63;;;9.80;42.20;;;;;;4981107;28;20376;-42
2022/03/20 08:47:54;;;;;;;53.90;29.45;;;9.90;42.10;;;;;;4982577;28;20055;-43
2022/03/20 08:50:22;;;;;;;52.47;29.27;;;10.00;41.80;;;;;;4981810;28;20073;-44
2022/03/20 08:52:49;;;;;;;44.65;26.50;;;10.00;42.00;;;;;;4983135;28;20419;-43
2022/03/20 08:55:18;;;;;;;49.97;28.23;;;10.10;42.10;;;;;;4980499;28;20058;-43
2022/03/20 08:57:48;;;;;;;52.63;29.40;;;10.20;42.20;;;;;;4984117;28;20081;-42
2022/03/20 09:00:18;;;;;;;52.50;27.65;;;10.30;42.40;;;;;;4983139;28;20410;-44
2022/03/20 09:02:46;;;;;;;47.17;27.63;;;10.30;42.30;;;;;;4980909;28;20061;-43
2022/03/20 09:05:14;;;;;;;46.90;26.33;;;10.40;42.10;;;;;;4977944;28;20058;-47
2022/03/20 09:07:43;;;;;;;45.38;26.85;;;10.50;41.90;;;;;;4983217;28;20062;-46
2022/03/20 09:10:13;;;;;;;53.90;28.70;;;10.50;41.70;;;;;;4978016;28;20069;-42
2022/03/20 09:12:42;;;;;;;49.72;28.63;;;10.60;41.80;;;;;;4984567;28;20054;-42
2022/03/20 09:15:13;;;;;;;47.38;28.05;;;10.70;41.80;;;;;;4983604;28;20050;-43
2022/03/20 09:20:26;;;;;;;52.20;28.48;;;10.80;41.70;;;;;;4987350;28;20057;-43
2022/03/20 09:22:54;;;;;;;47.58;28.38;;;10.90;41.30;;;;;;4984085;28;20054;-42
2022/03/20 09:25:21;;;;;;;50.03;27.13;;;11.00;41.00;;;;;;4981451;28;20058;-42
2022/03/20 09:27:51;;;;;;;47.30;28.37;;;11.10;41.00;;;;;;4983525;28;20050;-43
2022/03/20 09:30:21;;;;;;;47.20;27.25;;;11.10;40.70;;;;;;4982768;28;20081;-44
2022/03/20 09:32:49;;;;;;;46.47;26.85;;;11.20;40.80;;;;;;4981872;28;20077;-44
2022/03/20 09:35:17;;;;;;;48.53;27.58;;;11.30;40.40;;;;;;4977505;28;20050;-43
2022/03/20 09:37:44;;;;;;;53.72;27.75;;;11.30;40.50;;;;;;4983095;28;20403;-42
2022/03/20 09:40:13;;;;;;;49.63;28.55;;;11.40;40.60;;;;;;4982338;28;20050;-45
2022/03/20 09:42:42;;;;;;;49.95;28.15;;;11.40;40.30;;;;;;4983908;28;20050;-43
2022/03/20 09:45:10;;;;;;;48.42;28.52;;;11.40;40.20;;;;;;4979227;28;20069;-42
2022/03/20 09:47:41;;;;;;;47.88;27.55;;;11.50;40.30;;;;;;4982846;28;20054;-43
2022/03/20 09:50:10;;;;;;;50.03;29.23;;;11.50;40.30;;;;;;4982724;28;20529;-43
2022/03/20 09:52:39;;;;;;;46.17;27.27;;;11.50;40.40;;;;;;4981605;28;20054;-43
2022/03/20 09:55:08;;;;;;;51.95;29.08;;;11.50;40.10;;;;;;4982641;28;20054;-42
2022/03/20 09:57:36;;;;;;;48.38;29.05;;;11.50;40.10;;;;;;4982009;28;20058;-42
2022/03/20 10:00:11;;;;;;;51.78;28.23;;;11.60;40.30;;;;;;4983292;28;20050;-42
2022/03/20 10:02:40;;;;;;;47.15;28.38;;;11.60;40.40;;;;;;4981398;28;20053;-44
2022/03/20 10:05:09;;;;;;;53.13;27.90;;;11.60;40.50;;;;;;4977171;28;20062;-42
2022/03/20 10:07:40;;;;;;;46.45;27.35;;;11.70;40.50;;;;;;4981803;28;20061;-43
2022/03/20 10:10:14;;;;;;;49.65;28.25;;;11.70;40.60;;;;;;4982327;28;20042;-43
2022/03/20 10:12:44;;;;;;;52.83;29.05;;;11.70;40.20;;;;;;4983467;28;20073;-42
2022/03/20 10:15:30;;;;;;;52.58;28.95;;;11.80;40.20;;;;;;4979298;28;20058;-44
2022/03/20 10:18:10;;;;;;;50.45;28.35;;;11.80;40.20;;;;;;4982029;28;20050;-43
2022/03/20 10:20:41;;;;;;;50.45;28.38;;;11.80;40.20;;;;;;4979901;28;20054;-43
2022/03/20 10:23:31;;;;;;;50.70;29.40;;;11.90;40.20;;;;;;4982387;28;20062;-43
2022/03/20 10:25:59;;;;;;;47.40;28.33;;;11.90;40.20;;;;;;4980893;28;20811;-43
2022/03/20 10:28:36;;;;;;;52.22;29.88;;;11.90;40.40;;;;;;4982781;28;20058;-43
2022/03/20 10:31:06;;;;;;;51.00;29.05;;;12.00;40.50;;;;;;4981150;28;20442;-43
2022/03/20 10:33:38;;;;;;;52.47;28.45;;;12.10;40.50;;;;;;4981309;28;20046;-43
2022/03/20 10:36:10;;;;;;;54.28;28.77;;;12.10;40.40;;;;;;4979209;28;20050;-43
2022/03/20 10:38:38;;;;;;;52.38;28.20;;;12.20;40.40;;;;;;4983143;28;20061;-49
2022/03/20 10:41:21;;;;;;;49.50;28.38;;;12.20;40.20;;;;;;4982480;28;20410;-43
2022/03/20 10:43:49;;;;;;;48.00;28.92;;;12.30;40.00;;;;;;4982618;28;20537;-43
2022/03/20 10:46:22;;;;;;;52.13;28.98;;;12.30;40.10;;;;;;4981446;28;20518;-44
2022/03/20 10:48:52;;;;;;;46.38;27.60;;;12.40;39.90;;;;;;4982278;28;20050;-42
2022/03/20 10:51:38;;;;;;;48.45;28.75;;;12.50;39.60;;;;;;4981419;28;20061;-49
2022/03/20 10:54:08;;;;;;;49.20;28.27;;;12.50;39.70;;;;;;4980692;28;20069;-46
2022/03/20 10:56:36;;;;;;;55.88;29.75;;;12.60;39.70;;;;;;4981679;28;20054;-45
2022/03/20 10:59:14;;;;;;;48.63;27.67;;;12.60;39.80;;;;;;4981518;28;20050;-43
2022/03/20 11:01:43;;;;;;;54.13;27.50;;;12.70;40.00;;;;;;4984807;28;20062;-44
2022/03/20 11:04:14;;;;;;;48.80;29.02;;;12.70;40.00;;;;;;4982482;28;20065;-42
2022/03/20 11:06:43;;;;;;;48.45;28.27;;;12.80;39.90;;;;;;4985810;28;20069;-44
2022/03/20 11:09:11;;;;;;;47.55;28.38;;;12.90;39.90;;;;;;4985867;28;20550;-42
2022/03/20 11:11:41;;;;;;;56.30;30.33;;;13.00;40.00;;;;;;4986942;28;20077;-42
2022/03/20 11:14:10;;;;;;;52.83;28.83;;;13.00;40.00;;;;;;4980122;28;20058;-42
2022/03/20 11:16:41;;;;;;;50.17;28.40;;;13.10;40.10;;;;;;4985184;28;20394;-42
2022/03/20 11:19:11;;;;;;;49.60;27.98;;;13.20;40.10;;;;;;4985998;28;20058;-42
2022/03/20 11:21:44;;;;;;;49.20;28.23;;;13.30;40.20;;;;;;4982758;28;20054;-42
2022/03/20 11:24:13;;;;;;;46.10;27.53;;;13.30;40.30;;;;;;4983498;28;20073;-45
2022/03/20 11:26:43;;;;;;;43.78;26.48;;;13.40;40.30;;;;;;4986391;28;20058;-46
2022/03/20 11:29:13;;;;;;;44.92;27.58;;;13.60;40.40;;;;;;4985079;28;20050;-44
2022/03/20 11:31:41;;;;;;;50.90;26.98;;;13.60;40.20;;;;;;4984855;28;20058;-43
2022/03/20 11:34:09;;;;;;;44.53;25.60;;;13.70;40.10;;;;;;4983305;28;20050;-42
2022/03/20 11:37:03;;;;;;;46.35;25.13;;;13.80;40.20;;;;;;4983969;28;20062;-42
2022/03/20 11:39:31;;;;;;;47.00;27.57;;;13.80;40.40;;;;;;4983512;28;20055;-42
2022/03/20 11:42:23;;;;;;;47.58;27.30;;;13.90;40.20;;;;;;4984505;28;20486;-43
2022/03/20 11:45:09;;;;;;;40.65;25.42;;;14.00;40.50;;;;;;4980750;28;20053;-43
2022/03/20 11:47:38;;;;;;;43.50;26.10;;;14.20;40.80;;;;;;4977396;28;20541;-42
2022/03/20 11:50:11;;;;;;;47.22;25.52;;;14.20;41.00;;;;;;4980980;28;20501;-44
2022/03/20 11:53:00;;;;;;;39.53;24.25;;;14.30;40.90;;;;;;4982980;28;20057;-42
2022/03/20 11:55:33;;;;;;;42.15;26.10;;;14.40;40.40;;;;;;4982132;28;20050;-43
2022/03/20 11:58:02;;;;;;;42.67;25.10;;;14.50;40.40;;;;;;4983078;28;20058;-43
2022/03/20 12:00:31;;;;;;;44.97;25.75;;;14.60;40.60;;;;;;4984609;28;20050;-42
2022/03/20 12:03:22;;;;;;;43.88;25.75;;;14.60;40.50;;;;;;4981949;28;20055;-43
2022/03/20 12:06:36;;;;;;;50.22;24.42;;;14.80;40.10;;;;;;4978649;28;20061;-42
2022/03/20 12:09:17;;;;;;;44.38;23.77;;;14.80;39.90;;;;;;4979837;28;20046;-47
2022/03/20 12:12:07;;;;;;;38.15;23.80;;;14.90;40.10;;;;;;4980806;28;20050;-43
2022/03/20 12:14:39;;;;;;;38.35;24.20;;;15.00;40.10;;;;;;4982743;28;20161;-43
2022/03/20 12:17:08;;;;;;;37.25;22.77;;;15.00;39.80;;;;;;4982631;28;20069;-43
2022/03/20 12:19:42;;;;;;;37.95;22.95;;;15.00;39.80;;;;;;4983446;28;20415;-42
2022/03/20 12:22:14;;;;;;;38.45;22.27;;;15.00;39.40;;;;;;4984080;28;20054;-43
2022/03/20 12:24:53;;;;;;;36.83;22.98;;;15.10;39.70;;;;;;4982999;28;20510;-43
2022/03/20 12:27:39;;;;;;;44.45;22.20;;;15.10;39.70;;;;;;4983493;28;20054;-43
2022/03/20 12:30:36;;;;;;;37.85;22.42;;;15.10;39.60;;;;;;4983553;28;20498;-42
2022/03/20 12:33:25;;;;;;;38.00;22.85;;;15.10;39.70;;;;;;4982217;28;20046;-42
2022/03/20 12:35:54;;;;;;;35.08;22.25;;;15.20;40.00;;;;;;4982187;28;20054;-43
2022/03/20 12:38:40;;;;;;;36.05;22.83;;;15.20;40.00;;;;;;4982776;28;20483;-43
2022/03/20 12:41:13;;;;;;;33.67;21.95;;;15.20;39.90;;;;;;4981180;28;20066;-42
2022/03/20 12:43:41;;;;;;;40.15;23.02;;;15.20;40.40;;;;;;4981480;28;20069;-43
2022/03/20 12:46:11;;;;;;;38.92;21.85;;;15.20;39.90;;;;;;4980884;28;20069;-43
2022/03/20 12:48:50;;;;;;;35.53;22.40;;;15.30;40.00;;;;;;4983330;28;20418;-42
2022/03/20 12:51:30;;;;;;;34.10;21.48;;;15.30;40.10;;;;;;4982717;28;20050;-43
2022/03/20 12:54:11;;;;;;;39.25;22.45;;;15.30;40.20;;;;;;4979390;28;20042;-43
2022/03/20 12:56:53;;;;;;;34.50;21.13;;;15.40;40.00;;;;;;4982072;28;20058;-43
2022/03/20 12:59:21;;;;;;;37.33;21.10;;;15.50;40.10;;;;;;4981679;28;20349;-42
2022/03/20 13:01:49;;;;;;;33.17;21.00;;;15.60;40.10;;;;;;4982077;28;20050;-44
2022/03/20 13:04:18;;;;;;;32.10;20.83;;;15.60;39.70;;;;;;4980069;28;20061;-43
2022/03/20 13:06:46;;;;;;;30.38;18.77;;;15.60;39.70;;;;;;4982825;28;20062;-44
2022/03/20 13:09:14;;;;;;;29.38;18.50;;;15.70;40.20;;;;;;4980245;28;20054;-43
2022/03/20 13:11:56;;;;;;;31.85;19.38;;;15.80;40.10;;;;;;4982028;28;20116;-44
2022/03/20 13:14:26;;;;;;;28.60;17.25;;;15.80;40.10;;;;;;4979955;28;20646;-44
2022/03/20 13:16:55;;;;;;;32.97;18.40;;;15.90;40.10;;;;;;4978130;28;20065;-42
2022/03/20 13:19:31;;;;;;;35.97;19.05;;;16.00;40.00;;;;;;4981020;28;20514;-44
2022/03/20 13:22:02;;;;;;;29.38;17.42;;;16.10;40.40;;;;;;4981826;28;20053;-44
2022/03/20 13:24:34;;;;;;;34.33;16.83;;;16.10;40.00;;;;;;4979679;28;20054;-43
2022/03/20 13:27:03;;;;;;;25.67;15.60;;;16.20;39.80;;;;;;4982278;28;20083;-43